createdAt,value
2024-01-11T00:01:20.144Z,10.23
2024-01-11T00:03:47.628Z,7.33
2024-01-11T00:08:56.856Z,9.80
2024-01-11T00:11:24.374Z,11.10
2024-01-11T00:13:51.837Z,10.80
2024-01-11T00:16:19.111Z,10.33
2024-01-11T00:18:46.913Z,7.23
2024-01-11T00:21:14.237Z,9.70
2024-01-11T00:23:44.331Z,7.30
2024-01-11T00:26:14.611Z,7.40
2024-01-11T00:28:41.945Z,12.00
2024-01-11T00:31:12.197Z,8.37
2024-01-11T00:33:41.389Z,9.93
2024-01-11T00:42:00.123Z,10.63
2024-01-11T00:49:45.031Z,6.50
2024-01-11T00:52:15.092Z,8.17
2024-01-11T01:00:02.668Z,8.90
2024-01-11T01:02:30.090Z,9.47
2024-01-11T01:04:57.300Z,8.80
2024-01-11T01:20:55.126Z,14.93
2024-01-11T01:23:22.489Z,7.93
2024-01-11T01:25:50.582Z,10.10
2024-01-11T01:28:17.823Z,10.00
2024-01-11T01:30:47.588Z,10.93
2024-01-11T01:33:15.089Z,5.40
2024-01-11T01:35:42.583Z,9.33
2024-01-11T01:38:09.895Z,8.73
2024-01-11T01:40:38.898Z,10.13
2024-01-11T01:43:12.042Z,10.33
2024-01-11T01:45:39.518Z,10.93
2024-01-11T01:48:07.704Z,8.20
2024-01-11T01:50:35.199Z,14.67
2024-01-11T01:53:03.018Z,8.23
2024-01-11T01:55:31.128Z,15.63
2024-01-11T01:57:59.155Z,12.50
2024-01-11T02:00:26.897Z,8.67
2024-01-11T02:02:56.617Z,12.80
2024-01-11T02:05:24.856Z,9.57
2024-01-11T02:07:55.308Z,9.30
2024-01-11T02:10:25.063Z,12.20
2024-01-11T02:12:52.498Z,7.40
2024-01-11T02:15:19.876Z,9.63
2024-01-11T02:17:49.567Z,7.67
2024-01-11T02:20:17.158Z,10.43
2024-01-11T02:22:51.622Z,7.67
2024-01-11T02:25:18.867Z,8.43
2024-01-11T02:27:50.093Z,13.27
2024-01-11T02:30:18.277Z,8.37
2024-01-11T02:32:49.604Z,8.67
2024-01-11T02:35:18.132Z,9.57
2024-01-11T02:37:46.913Z,10.77
2024-01-11T02:40:16.290Z,9.27
2024-01-11T02:42:43.937Z,11.17
2024-01-11T02:45:13.839Z,10.37
2024-01-11T02:47:44.280Z,10.77
2024-01-11T02:50:13.914Z,11.47
2024-01-11T02:52:41.183Z,7.60
2024-01-11T02:55:08.668Z,11.13
2024-01-11T02:57:36.027Z,14.10
2024-01-11T03:00:03.670Z,11.90
2024-01-11T03:02:31.169Z,6.33
2024-01-11T03:04:58.561Z,10.70
2024-01-11T03:07:25.764Z,14.23
2024-01-11T03:09:53.190Z,13.93
2024-01-11T03:12:20.300Z,8.00
2024-01-11T03:14:47.542Z,10.17
2024-01-11T03:17:14.872Z,7.80
2024-01-11T03:19:42.613Z,15.67
2024-01-11T03:22:10.034Z,12.73
2024-01-11T03:24:40.609Z,7.43
2024-01-11T03:27:07.856Z,13.30
2024-01-11T03:29:35.400Z,6.93
2024-01-11T03:32:02.753Z,5.97
2024-01-11T03:34:30.190Z,9.50
2024-01-11T03:36:58.245Z,7.00
2024-01-11T03:39:27.286Z,11.90
2024-01-11T03:41:54.731Z,6.97
2024-01-11T03:46:57.580Z,10.67
2024-01-11T03:49:25.170Z,9.00
2024-01-11T03:51:52.543Z,7.53
2024-01-11T03:54:21.569Z,7.93
2024-01-11T03:56:49.471Z,8.17
2024-01-11T03:59:16.920Z,7.10
2024-01-11T04:01:44.210Z,10.20
2024-01-11T04:04:13.623Z,9.37
2024-01-11T04:07:10.906Z,8.80
2024-01-11T04:10:14.465Z,7.20
2024-01-11T04:15:57.728Z,9.83
2024-01-11T04:19:09.569Z,7.37
2024-01-11T04:21:57.544Z,6.63
2024-01-11T04:27:58.009Z,6.93
2024-01-11T04:30:28.895Z,11.27
2024-01-11T04:33:10.777Z,8.47
2024-01-11T04:48:13.676Z,7.80
2024-01-11T04:50:40.959Z,9.17
2024-01-11T04:53:08.522Z,5.67
2024-01-11T04:55:36.180Z,11.17
2024-01-11T04:58:03.538Z,10.43
2024-01-11T05:00:31.115Z,11.37
2024-01-11T05:02:58.259Z,7.53
2024-01-11T05:05:25.518Z,8.73
2024-01-11T05:07:52.595Z,9.43
2024-01-11T05:10:20.354Z,10.63
2024-01-11T05:12:47.628Z,13.27
2024-01-11T05:15:17.452Z,8.40
2024-01-11T05:17:54.000Z,10.07
2024-01-11T05:20:21.332Z,14.23
2024-01-11T05:22:48.554Z,9.73
2024-01-11T05:25:15.685Z,8.73
2024-01-11T05:27:42.772Z,5.40
2024-01-11T05:30:14.037Z,5.90
2024-01-11T05:35:16.735Z,6.57
2024-01-11T05:37:43.846Z,8.53
2024-01-11T05:40:11.599Z,7.27
2024-01-11T05:42:41.057Z,7.83
2024-01-11T05:45:12.619Z,7.33
2024-01-11T05:47:45.832Z,11.10
2024-01-11T05:50:19.062Z,14.70
2024-01-11T05:52:46.431Z,9.07
2024-01-11T05:55:15.819Z,9.27
2024-01-11T06:16:30.022Z,11.47
2024-01-11T06:21:32.671Z,10.60
2024-01-11T06:24:02.594Z,10.07
2024-01-11T06:37:39.125Z,8.83
2024-01-11T06:45:36.655Z,9.53
2024-01-11T06:48:07.823Z,9.87
2024-01-11T06:59:02.801Z,7.43
2024-01-11T07:04:16.551Z,5.30
2024-01-11T07:23:25.450Z,8.10
2024-01-11T07:25:52.741Z,6.23
2024-01-11T07:28:20.892Z,5.27
2024-01-11T07:30:57.855Z,4.60
2024-01-11T07:33:25.651Z,6.63
2024-01-11T07:35:55.553Z,4.33
2024-01-11T07:54:50.717Z,3.93
2024-01-11T07:57:19.965Z,3.70
2024-01-11T07:59:53.129Z,4.43
2024-01-11T08:02:23.340Z,4.57
2024-01-11T08:04:53.928Z,3.03
2024-01-11T08:07:22.090Z,5.07
2024-01-11T08:09:52.087Z,3.37
2024-01-11T08:12:19.257Z,5.53
2024-01-11T08:14:47.716Z,5.33
2024-01-11T08:17:15.384Z,4.00
2024-01-11T08:19:45.356Z,4.20
2024-01-11T08:22:12.673Z,3.57
2024-01-11T08:24:39.574Z,6.17
2024-01-11T08:27:07.108Z,4.07
2024-01-11T08:29:34.610Z,4.30
2024-01-11T08:32:15.301Z,4.60
2024-01-11T08:34:51.338Z,2.97
2024-01-11T08:37:18.340Z,5.07
2024-01-11T08:39:47.377Z,4.50
2024-01-11T08:42:16.376Z,7.03
2024-01-11T08:44:44.008Z,8.97
2024-01-11T08:47:11.662Z,4.77
2024-01-11T08:49:40.398Z,4.83
2024-01-11T08:52:09.176Z,2.90
2024-01-11T08:54:36.164Z,4.17
2024-01-11T08:57:03.156Z,5.87
2024-01-11T08:59:30.145Z,3.33
2024-01-11T09:02:06.272Z,5.43
2024-01-11T09:04:40.845Z,5.20
2024-01-11T09:07:07.780Z,7.13
2024-01-11T09:09:41.369Z,3.67
2024-01-11T09:12:14.504Z,2.70
2024-01-11T09:14:41.579Z,4.80
2024-01-11T09:17:09.845Z,3.87
2024-01-11T09:19:39.088Z,2.87
2024-01-11T09:22:06.313Z,4.67
2024-01-11T09:24:39.322Z,4.77
2024-01-11T09:27:07.821Z,3.27
2024-01-11T09:29:35.058Z,2.70
2024-01-11T09:32:02.421Z,3.53
2024-01-11T09:34:29.510Z,4.67
2024-01-11T09:37:00.257Z,3.83
2024-01-11T09:39:27.779Z,2.80
2024-01-11T09:42:02.222Z,6.00
2024-01-11T09:44:30.752Z,6.27
2024-01-11T09:46:59.703Z,7.23
2024-01-11T09:49:27.673Z,3.53
2024-01-11T09:51:57.838Z,5.73
2024-01-11T09:54:34.604Z,2.63
2024-01-11T09:57:04.509Z,4.07
2024-01-11T09:59:31.924Z,4.67
2024-01-11T10:01:59.738Z,3.60
2024-01-11T10:04:27.210Z,5.00
2024-01-11T10:06:56.378Z,5.03
2024-01-11T10:09:24.006Z,4.20
2024-01-11T10:11:52.254Z,7.40
2024-01-11T10:14:19.248Z,7.13
2024-01-11T10:16:46.434Z,5.80
2024-01-11T10:19:16.997Z,5.90
2024-01-11T10:21:44.075Z,11.30
2024-01-11T10:24:11.313Z,3.53
2024-01-11T10:26:38.279Z,5.13
2024-01-11T10:29:13.158Z,5.00
2024-01-11T10:31:41.412Z,5.33
2024-01-11T10:34:08.388Z,9.87
2024-01-11T10:36:35.435Z,4.07
2024-01-11T10:39:07.174Z,5.80
2024-01-11T10:41:44.644Z,5.87
2024-01-11T10:44:22.787Z,5.43
2024-01-11T10:46:56.839Z,6.27
2024-01-11T10:49:26.582Z,7.07
2024-01-11T10:52:01.363Z,5.73
2024-01-11T10:54:32.044Z,4.60
2024-01-11T10:57:01.290Z,5.33
2024-01-11T10:59:28.837Z,4.40
2024-01-11T11:01:59.172Z,2.73
2024-01-11T11:04:26.748Z,3.67
2024-01-11T11:06:59.904Z,1.57
2024-01-11T11:09:28.897Z,1.83
2024-01-11T11:11:59.494Z,2.80
2024-01-11T11:14:26.586Z,1.67
2024-01-11T11:17:00.698Z,2.37
2024-01-11T11:19:28.651Z,2.80
2024-01-11T11:21:56.130Z,4.13
2024-01-11T11:24:23.039Z,1.87
2024-01-11T11:26:50.041Z,4.40
2024-01-11T11:29:17.869Z,2.57
2024-01-11T11:31:54.640Z,2.90
2024-01-11T11:34:22.212Z,9.50
2024-01-11T11:36:51.411Z,2.37
2024-01-11T11:39:20.913Z,5.97
2024-01-11T11:41:50.891Z,2.73
2024-01-11T11:44:18.165Z,2.00
2024-01-11T11:46:46.322Z,2.63
2024-01-11T11:49:14.822Z,5.00
2024-01-11T11:51:44.280Z,3.50
2024-01-11T11:54:11.822Z,1.87
2024-01-11T11:56:39.567Z,4.13
2024-01-11T11:59:09.452Z,1.77
2024-01-11T12:01:37.042Z,5.93
2024-01-11T12:04:04.152Z,4.13
2024-01-11T12:06:31.304Z,2.60
2024-01-11T12:08:58.994Z,3.20
2024-01-11T12:11:26.571Z,1.80
2024-01-11T12:13:55.237Z,2.70
2024-01-11T12:16:22.193Z,4.93
2024-01-11T12:18:50.908Z,5.17
2024-01-11T12:21:18.206Z,1.57
2024-01-11T12:23:45.958Z,4.63
2024-01-11T12:26:14.891Z,2.30
2024-01-11T12:28:43.702Z,2.73
2024-01-11T12:31:11.116Z,6.43
2024-01-11T12:33:40.126Z,4.83
2024-01-11T12:36:09.533Z,4.00
2024-01-11T12:38:37.188Z,4.80
2024-01-11T12:41:05.936Z,4.87
2024-01-11T12:43:33.019Z,8.60
2024-01-11T12:46:00.669Z,4.93
2024-01-11T12:48:27.835Z,9.07
2024-01-11T12:51:10.087Z,4.30
2024-01-11T12:53:41.834Z,4.77
2024-01-11T12:56:12.403Z,4.13
2024-01-11T12:58:39.610Z,4.07
2024-01-11T13:01:08.957Z,3.67
2024-01-11T13:03:40.917Z,8.07
2024-01-11T13:06:10.130Z,5.80
2024-01-11T13:08:38.764Z,5.17
2024-01-11T13:11:08.635Z,3.97
2024-01-11T13:13:36.126Z,7.27
2024-01-11T13:16:15.605Z,5.03
2024-01-11T13:18:42.732Z,6.33
2024-01-11T13:21:10.842Z,5.27
2024-01-11T13:23:39.258Z,3.83
2024-01-11T13:26:07.622Z,5.70
2024-01-11T13:28:34.877Z,7.33
2024-01-11T13:31:03.583Z,9.10
2024-01-11T13:33:30.953Z,15.40
2024-01-11T13:35:58.376Z,16.13
2024-01-11T13:38:25.782Z,15.43
2024-01-11T13:40:53.700Z,7.03
2024-01-11T13:43:20.693Z,10.30
2024-01-11T13:45:47.966Z,4.47
2024-01-11T13:48:14.932Z,7.63
2024-01-11T13:50:42.217Z,7.13
2024-01-11T13:53:09.256Z,4.13
2024-01-11T13:55:40.112Z,8.37
2024-01-11T13:58:07.964Z,6.93
2024-01-11T14:00:35.122Z,5.97
2024-01-11T14:03:02.727Z,5.73
2024-01-11T14:05:29.878Z,12.07
2024-01-11T14:08:00.438Z,8.33
2024-01-11T14:10:29.230Z,6.43
2024-01-11T14:12:56.706Z,6.97
2024-01-11T14:15:24.276Z,5.50
2024-01-11T14:17:51.895Z,5.27
2024-01-11T14:20:19.217Z,8.57
2024-01-11T14:22:53.073Z,9.80
2024-01-11T14:25:21.140Z,5.47
2024-01-11T14:27:49.331Z,6.63
2024-01-11T14:30:16.546Z,9.43
2024-01-11T14:32:44.141Z,5.70
2024-01-11T14:35:11.641Z,9.10
2024-01-11T14:37:40.471Z,12.13
2024-01-11T14:40:09.097Z,13.00
2024-01-11T14:42:36.017Z,10.83
2024-01-11T14:45:04.934Z,8.97
2024-01-11T14:47:35.305Z,10.17
2024-01-11T14:50:04.841Z,8.20
2024-01-11T14:52:32.291Z,8.83
2024-01-11T14:54:59.178Z,10.30
2024-01-11T14:57:26.105Z,12.67
2024-01-11T14:59:54.024Z,12.20
2024-01-11T15:02:21.178Z,11.13
2024-01-11T15:04:48.409Z,15.87
2024-01-11T15:07:15.745Z,11.17
2024-01-11T15:09:44.038Z,15.20
2024-01-11T15:12:11.086Z,10.77
2024-01-11T15:14:38.321Z,14.27
2024-01-11T15:17:05.578Z,11.87
2024-01-11T15:19:32.992Z,17.37
2024-01-11T15:22:00.600Z,15.47
2024-01-11T15:24:29.385Z,15.53
2024-01-11T15:26:56.652Z,14.97
2024-01-11T15:29:23.707Z,14.83
2024-01-11T15:31:51.549Z,16.90
2024-01-11T15:34:19.638Z,13.27
2024-01-11T15:36:47.707Z,16.83
2024-01-11T15:39:24.608Z,16.87
2024-01-11T15:41:56.796Z,18.73
2024-01-11T15:44:25.561Z,11.03
2024-01-11T15:46:52.513Z,15.77
2024-01-11T15:49:19.468Z,12.50
2024-01-11T15:51:46.387Z,15.73
2024-01-11T15:54:13.361Z,10.93
2024-01-11T15:56:40.294Z,17.17
2024-01-11T15:59:08.508Z,11.60
2024-01-11T16:01:46.572Z,21.13
2024-01-11T16:04:22.862Z,15.57
2024-01-11T16:06:50.349Z,14.47
2024-01-11T16:09:17.380Z,12.20
2024-01-11T16:11:44.469Z,13.13
2024-01-11T16:14:11.532Z,17.07
2024-01-11T16:16:38.762Z,15.17
2024-01-11T16:19:05.788Z,14.40
2024-01-11T16:21:33.262Z,12.93
2024-01-11T16:24:02.935Z,23.17
2024-01-11T16:26:30.877Z,13.07
2024-01-11T16:28:58.457Z,13.07
2024-01-11T16:31:25.616Z,10.87
2024-01-11T16:33:53.646Z,15.47
2024-01-11T16:36:20.721Z,16.10
2024-01-11T16:38:47.773Z,19.13
2024-01-11T16:41:14.952Z,16.07
2024-01-11T16:43:44.836Z,18.17
2024-01-11T16:46:23.378Z,15.93
2024-01-11T16:48:53.967Z,20.90
2024-01-11T16:51:21.183Z,20.43
2024-01-11T16:53:48.273Z,18.50
2024-01-11T16:56:15.576Z,20.37
2024-01-11T16:58:43.264Z,20.23
2024-01-11T17:01:11.352Z,10.77
2024-01-11T17:03:38.417Z,12.73
2024-01-11T17:06:06.026Z,11.93
2024-01-11T17:08:33.172Z,10.77
2024-01-11T17:11:00.125Z,12.43
2024-01-11T17:13:27.501Z,16.97
2024-01-11T17:15:54.749Z,18.70
2024-01-11T17:18:24.442Z,18.43
2024-01-11T17:20:51.730Z,10.13
2024-01-11T17:23:19.221Z,13.17
2024-01-11T17:25:46.685Z,13.80
2024-01-11T17:28:13.693Z,15.70
2024-01-11T17:30:40.759Z,15.13
2024-01-11T17:33:07.908Z,13.80
2024-01-11T17:35:34.970Z,16.13
2024-01-11T17:38:01.984Z,13.07
2024-01-11T17:40:31.004Z,11.60
2024-01-11T17:42:59.862Z,12.57
2024-01-11T17:45:26.720Z,13.80
2024-01-11T17:47:54.458Z,22.30
2024-01-11T17:50:22.483Z,32.10
2024-01-11T17:52:51.522Z,22.07
2024-01-11T17:55:19.113Z,17.87
2024-01-11T17:57:45.982Z,17.10
2024-01-11T18:00:13.818Z,20.23
2024-01-11T18:02:40.754Z,13.07
2024-01-11T18:05:08.235Z,12.57
2024-01-11T18:07:35.229Z,10.03
2024-01-11T18:10:03.558Z,10.17
2024-01-11T18:12:30.388Z,14.93
2024-01-11T18:14:57.782Z,13.63
2024-01-11T18:17:24.908Z,14.13
2024-01-11T18:19:51.889Z,22.37
2024-01-11T18:22:18.791Z,23.47
2024-01-11T18:24:48.447Z,21.17
2024-01-11T18:27:15.373Z,21.30
2024-01-11T18:29:42.342Z,14.10
2024-01-11T18:32:09.415Z,11.30
2024-01-11T18:34:36.336Z,14.93
2024-01-11T18:37:03.472Z,12.90
2024-01-11T18:39:30.446Z,15.73
2024-01-11T18:41:58.972Z,17.83
2024-01-11T18:44:26.892Z,21.07
2024-01-11T18:46:53.876Z,12.33
2024-01-11T18:49:21.114Z,16.77
2024-01-11T18:51:48.577Z,12.27
2024-01-11T18:54:15.780Z,10.70
2024-01-11T18:56:43.793Z,13.60
2024-01-11T18:59:10.830Z,16.77
2024-01-11T19:01:37.739Z,14.70
2024-01-11T19:04:04.891Z,16.27
2024-01-11T19:06:32.007Z,13.27
2024-01-11T19:08:59.201Z,14.57
2024-01-11T19:11:26.963Z,12.87
2024-01-11T19:13:53.872Z,19.67
2024-01-11T19:16:20.826Z,17.23
2024-01-11T19:18:50.898Z,13.37
2024-01-11T19:21:19.637Z,14.17
2024-01-11T19:23:46.733Z,12.63
2024-01-11T19:28:58.629Z,10.60
2024-01-11T19:31:25.916Z,9.17
2024-01-11T19:33:55.451Z,12.63
2024-01-11T19:36:31.018Z,17.43
2024-01-11T19:39:02.149Z,11.93
2024-01-11T19:41:33.049Z,17.43
2024-01-11T19:44:00.880Z,16.73
2024-01-11T19:49:39.357Z,16.27
2024-01-11T19:52:06.716Z,20.03
2024-01-11T19:54:34.209Z,13.87
2024-01-11T19:57:01.745Z,19.93
2024-01-11T19:59:29.375Z,17.83
2024-01-11T20:01:57.961Z,12.50
2024-01-11T20:04:37.855Z,15.17
2024-01-11T20:21:22.475Z,14.47
2024-01-11T20:24:02.463Z,11.63
2024-01-11T20:26:29.994Z,12.53
2024-01-11T20:29:00.240Z,10.90
2024-01-11T20:31:27.799Z,11.30
2024-01-11T20:33:57.713Z,12.80
2024-01-11T20:36:25.504Z,13.43
2024-01-11T20:38:53.087Z,16.27
2024-01-11T20:41:21.194Z,10.93
2024-01-11T20:43:50.516Z,9.53
2024-01-11T20:46:27.373Z,13.30
2024-01-11T20:48:55.785Z,14.77
2024-01-11T20:51:23.156Z,14.20
2024-01-11T20:53:51.401Z,8.03
2024-01-11T20:56:18.655Z,11.47
2024-01-11T20:58:45.956Z,12.33
2024-01-11T21:01:13.453Z,16.03
2024-01-11T21:03:40.578Z,14.83
2024-01-11T21:06:08.501Z,13.27
2024-01-11T21:08:35.938Z,17.07
2024-01-11T21:11:03.690Z,10.60
2024-01-11T21:13:30.903Z,11.17
2024-01-11T21:15:58.494Z,12.37
2024-01-11T21:18:25.856Z,14.80
2024-01-11T21:20:53.126Z,8.33
2024-01-11T21:23:20.042Z,9.27
2024-01-11T21:25:47.126Z,14.90
2024-01-11T21:28:15.544Z,14.47
2024-01-11T21:30:42.903Z,16.27
2024-01-11T21:33:10.008Z,12.27
2024-01-11T21:35:37.086Z,13.53
2024-01-11T21:38:04.161Z,14.47
2024-01-11T21:40:31.781Z,14.90
2024-01-11T21:42:58.746Z,12.63
2024-01-11T21:45:25.677Z,8.93
2024-01-11T21:47:53.162Z,10.43
2024-01-11T21:50:20.308Z,12.67
2024-01-11T21:52:47.679Z,16.40
2024-01-11T21:55:15.197Z,13.67
2024-01-11T21:57:42.398Z,17.50
2024-01-11T22:00:12.213Z,13.67
2024-01-11T22:02:39.249Z,13.37
2024-01-11T22:05:08.788Z,14.63
2024-01-11T22:07:35.632Z,11.47
2024-01-11T22:10:02.536Z,16.50
2024-01-11T22:12:29.436Z,15.20
2024-01-11T22:14:56.304Z,14.27
2024-01-11T22:17:23.468Z,15.70
2024-01-11T22:19:50.948Z,15.93
2024-01-11T22:22:17.949Z,13.03
2024-01-11T22:24:44.781Z,16.77
2024-01-11T22:27:11.987Z,12.70
2024-01-11T22:29:38.987Z,12.33
2024-01-11T22:32:06.397Z,11.47
2024-01-11T22:34:33.304Z,16.60
2024-01-11T22:37:00.283Z,15.53
2024-01-11T22:39:27.623Z,13.20
2024-01-11T22:41:55.038Z,17.07
2024-01-11T22:44:22.084Z,15.97
2024-01-11T22:46:48.981Z,13.67
2024-01-11T22:49:15.951Z,14.80
2024-01-11T22:51:42.788Z,17.33
2024-01-11T22:54:09.636Z,11.30
2024-01-11T22:56:38.458Z,12.40
2024-01-11T22:59:06.233Z,15.10
2024-01-11T23:01:33.586Z,10.70
2024-01-11T23:04:00.499Z,13.43
2024-01-11T23:06:27.624Z,12.70
2024-01-11T23:08:54.646Z,17.57
2024-01-11T23:11:21.673Z,11.47
2024-01-11T23:13:48.628Z,13.77
2024-01-11T23:16:15.637Z,13.23
2024-01-11T23:18:45.123Z,11.50
2024-01-11T23:21:12.480Z,12.20
2024-01-11T23:23:39.385Z,11.23
2024-01-11T23:26:06.632Z,11.03
2024-01-11T23:28:33.565Z,11.57
2024-01-11T23:31:00.601Z,12.73
2024-01-11T23:33:27.918Z,11.30
2024-01-11T23:35:56.292Z,12.40
2024-01-11T23:38:23.286Z,19.27
2024-01-11T23:40:50.203Z,13.10
2024-01-11T23:43:17.889Z,9.60
2024-01-11T23:45:45.113Z,10.53
2024-01-11T23:48:12.122Z,12.80
2024-01-11T23:50:39.347Z,15.90
2024-01-11T23:53:06.394Z,17.17
2024-01-11T23:55:33.477Z,17.60
2024-01-11T23:58:00.344Z,14.80
